Time;durP1;ratioP1;P1;durP2;ratioP2;P2;SDS_P1;SDS_P2;PMS_P1;PMS_P2;Temp;Humidity;BMP_temperature;BMP_pressure;BME280_temperature;BME280_humidity;BME280_pressure;Samples;Min_cycle;Max_cycle;Signal;HPM_P1;HPM_P2
2023/10/21 00:01:35;;;;;;;;;;;;;;;;;;5068972;28;19955;-56
2023/10/21 00:04:01;;;;;;;;;;;;;;;;;;5067169;28;19912;-56
2023/10/21 00:06:28;;;;;;;;;;;;;;;;;;5070112;28;19909;-56
2023/10/21 00:08:54;;;;;;;;;;;;;;;;;;5069323;28;20004;-56
2023/10/21 00:11:20;;;;;;;;;;;;;;;;;;5069534;28;19912;-56
2023/10/21 00:13:46;;;;;;;;;;;;;;;;;;5069071;28;19915;-56
2023/10/21 00:16:15;;;;;;;;;;;;;;;;;;5063092;28;20005;-56
2023/10/21 00:18:41;;;;;;;;;;;;;;;;;;5067535;28;19912;-56
2023/10/21 00:21:07;;;;;;;;;;;;;;;;;;5061364;28;19916;-56
2023/10/21 00:23:33;;;;;;;;;;;;;;;;;;5066738;28;20145;-56
2023/10/21 00:25:59;;;;;;;;;;;;;;;;;;5064207;28;19962;-56
2023/10/21 00:28:25;;;;;;;;;;;;;;;;;;5066419;28;20041;-56
2023/10/21 00:30:51;;;;;;;;;;;;;;;;;;5068497;28;20037;-56
2023/10/21 00:33:17;;;;;;;;;;;;;;;;;;5065085;28;19940;-56
2023/10/21 00:35:43;;;;;;;;;;;;;;;;;;5065411;28;19947;-56
2023/10/21 00:38:08;;;;;;;;;;;;;;;;;;5068202;28;20343;-56
2023/10/21 00:40:35;;;;;;;;;;;;;;;;;;5067901;28;19982;-56
2023/10/21 00:43:01;;;;;;;;;;;;;;;;;;5067715;28;19935;-56
2023/10/21 00:45:27;;;;;;;;;;;;;;;;;;5067836;28;19913;-56
2023/10/21 00:47:53;;;;;;;;;;;;;;;;;;5066655;28;19956;-56
2023/10/21 00:50:21;;;;;;;;;;;;;;;;;;5068459;28;20288;-56
2023/10/21 00:52:48;;;;;;;;;;;;;;;;;;5067991;28;19912;-56
2023/10/21 00:55:14;;;;;;;;;;;;;;;;;;5057317;28;19919;-56
2023/10/21 00:57:40;;;;;;;;;;;;;;;;;;5061631;28;19936;-56
2023/10/21 01:00:10;;;;;;;;;;;;;;;;;;5067834;28;20320;-56
2023/10/21 01:02:36;;;;;;;;;;;;;;;;;;5063314;28;19920;-56
2023/10/21 01:05:02;;;;;;;;;;;;;;;;;;5062986;28;20146;-56
2023/10/21 01:07:28;;;;;;;;;;;;;;;;;;5065147;28;20287;-56
2023/10/21 01:09:54;;;;;;;;;;;;;;;;;;5063993;28;20309;-56
2023/10/21 01:12:20;;;;;;;;;;;;;;;;;;5061842;28;20388;-56
2023/10/21 01:14:46;;;;;;;;;;;;;;;;;;5065649;28;20458;-56
2023/10/21 01:17:12;;;;;;;;;;;;;;;;;;5064675;28;19908;-56
2023/10/21 01:19:38;;;;;;;;;;;;;;;;;;5063537;28;20239;-56
2023/10/21 01:22:04;;;;;;;;;;;;;;;;;;5064927;28;19951;-56
2023/10/21 01:24:30;;;;;;;;;;;;;;;;;;5064777;28;19936;-57
2023/10/21 01:26:56;;;;;;;;;;;;;;;;;;5064889;28;20489;-56
2023/10/21 01:29:22;;;;;;;;;;;;;;;;;;5066963;28;19983;-56
2023/10/21 01:31:48;;;;;;;;;;;;;;;;;;5063376;28;19916;-56
2023/10/21 01:34:15;;;;;;;;;;;;;;;;;;5067723;28;19977;-56
2023/10/21 01:36:43;;;;;;;;;;;;;;;;;;5068448;28;19916;-56
2023/10/21 01:39:10;;;;;;;;;;;;;;;;;;5067077;28;19912;-56
2023/10/21 01:41:36;;;;;;;;;;;;;;;;;;5067313;28;19916;-56
2023/10/21 01:44:02;;;;;;;;;;;;;;;;;;5068845;28;20368;-56
2023/10/21 01:46:28;;;;;;;;;;;;;;;;;;5067019;28;20030;-56
2023/10/21 01:48:54;;;;;;;;;;;;;;;;;;5067863;28;19958;-56
2023/10/21 01:51:20;;;;;;;;;;;;;;;;;;5068172;28;20324;-56
2023/10/21 01:53:46;;;;;;;;;;;;;;;;;;5068520;28;19983;-56
2023/10/21 01:56:12;;;;;;;;;;;;;;;;;;5064407;28;20809;-56
2023/10/21 01:58:39;;;;;;;;;;;;;;;;;;5065467;28;19974;-56
2023/10/21 02:01:05;;;;;;;;;;;;;;;;;;5059121;28;20018;-56
2023/10/21 02:03:31;;;;;;;;;;;;;;;;;;5062157;28;19923;-56
2023/10/21 02:05:57;;;;;;;;;;;;;;;;;;5065297;28;19947;-56
2023/10/21 02:08:23;;;;;;;;;;;;;;;;;;5065818;28;19947;-56
2023/10/21 02:10:49;;;;;;;;;;;;;;;;;;5062471;28;19958;-56
2023/10/21 02:13:15;;;;;;;;;;;;;;;;;;5061988;28;20507;-56
2023/10/21 02:15:41;;;;;;;;;;;;;;;;;;5063116;28;19955;-56
2023/10/21 02:18:07;;;;;;;;;;;;;;;;;;5061841;28;20392;-55
2023/10/21 02:20:33;;;;;;;;;;;;;;;;;;5065823;28;20007;-56
2023/10/21 02:22:59;;;;;;;;;;;;;;;;;;5064127;28;19912;-56
2023/10/21 02:25:25;;;;;;;;;;;;;;;;;;5060748;28;20143;-56
2023/10/21 02:27:51;;;;;;;;;;;;;;;;;;5061042;28;19974;-56
2023/10/21 02:30:18;;;;;;;;;;;;;;;;;;5064573;28;20343;-56
2023/10/21 02:32:44;;;;;;;;;;;;;;;;;;5059641;28;20350;-56
2023/10/21 02:35:10;;;;;;;;;;;;;;;;;;5058777;28;20295;-56
2023/10/21 02:37:36;;;;;;;;;;;;;;;;;;5064325;28;19944;-56
2023/10/21 02:40:03;;;;;;;;;;;;;;;;;;5064685;28;19913;-55
2023/10/21 02:42:29;;;;;;;;;;;;;;;;;;5079747;28;19912;-56
2023/10/21 02:44:57;;;;;;;;;;;;;;;;;;5062746;28;20453;-56
2023/10/21 02:47:23;;;;;;;;;;;;;;;;;;5061465;28;19912;-57
2023/10/21 02:49:49;;;;;;;;;;;;;;;;;;5063882;28;19915;-56
2023/10/21 02:52:15;;;;;;;;;;;;;;;;;;5066312;28;19977;-56
2023/10/21 02:54:41;;;;;;;;;;;;;;;;;;5064993;28;20010;-56
2023/10/21 02:57:07;;;;;;;;;;;;;;;;;;5065318;28;20299;-57
2023/10/21 02:59:33;;;;;;;;;;;;;;;;;;5070085;28;19936;-56
2023/10/21 03:01:59;;;;;;;;;;;;;;;;;;5067118;28;19951;-56
2023/10/21 03:04:25;;;;;;;;;;;;;;;;;;5061937;28;20280;-56
2023/10/21 03:06:51;;;;;;;;;;;;;;;;;;5064196;28;19920;-56
2023/10/21 03:09:17;;;;;;;;;;;;;;;;;;5059741;28;20383;-56
2023/10/21 03:11:43;;;;;;;;;;;;;;;;;;5068372;28;20178;-56
2023/10/21 03:14:09;;;;;;;;;;;;;;;;;;5068216;28;19958;-57
2023/10/21 03:16:35;;;;;;;;;;;;;;;;;;5069373;28;19964;-56
2023/10/21 03:19:01;;;;;;;;;;;;;;;;;;5068108;28;20283;-56
2023/10/21 03:21:27;;;;;;;;;;;;;;;;;;5066593;28;19947;-56
2023/10/21 03:23:53;;;;;;;;;;;;;;;;;;5065018;28;19923;-56
2023/10/21 03:26:19;;;;;;;;;;;;;;;;;;5068193;28;20014;-56
2023/10/21 03:28:45;;;;;;;;;;;;;;;;;;5068371;28;20408;-54
2023/10/21 03:31:11;;;;;;;;;;;;;;;;;;5067190;28;19970;-53
2023/10/21 03:33:37;;;;;;;;;;;;;;;;;;5066523;28;19956;-54
2023/10/21 03:36:06;;;;;;;;;;;;;;;;;;5071508;28;19961;-53
2023/10/21 03:38:32;;;;;;;;;;;;;;;;;;5069639;28;19912;-54
2023/10/21 03:40:58;;;;;;;;;;;;;;;;;;5070284;28;19938;-53
2023/10/21 03:43:24;;;;;;;;;;;;;;;;;;5070951;28;19916;-53
2023/10/21 03:45:50;;;;;;;;;;;;;;;;;;5070537;28;20390;-53
2023/10/21 03:48:16;;;;;;;;;;;;;;;;;;5064034;28;19913;-54
2023/10/21 03:50:43;;;;;;;;;;;;;;;;;;5067512;28;19912;-53
2023/10/21 03:53:09;;;;;;;;;;;;;;;;;;5065158;28;20186;-55
2023/10/21 03:55:35;;;;;;;;;;;;;;;;;;5062121;28;20001;-55
2023/10/21 03:58:01;;;;;;;;;;;;;;;;;;5062880;28;20395;-54
2023/10/21 04:00:30;;;;;;;;;;;;;;;;;;5065874;28;19916;-55
2023/10/21 04:02:56;;;;;;;;;;;;;;;;;;5063292;28;19999;-54
2023/10/21 04:05:22;;;;;;;;;;;;;;;;;;5067707;28;20328;-54
2023/10/21 04:07:48;;;;;;;;;;;;;;;;;;5078824;28;19952;-55
2023/10/21 04:10:14;;;;;;;;;;;;;;;;;;5069843;28;20272;-54
2023/10/21 04:12:39;;;;;;;;;;;;;;;;;;5064163;28;20421;-54
2023/10/21 04:15:05;;;;;;;;;;;;;;;;;;5067271;28;20289;-55
2023/10/21 04:17:31;;;;;;;;;;;;;;;;;;5064186;28;19959;-55
2023/10/21 04:19:57;;;;;;;;;;;;;;;;;;5068106;28;19989;-54
2023/10/21 04:22:23;;;;;;;;;;;;;;;;;;5063994;28;19943;-54
2023/10/21 04:24:49;;;;;;;;;;;;;;;;;;5065790;28;19912;-54
2023/10/21 04:27:15;;;;;;;;;;;;;;;;;;5065934;28;19944;-54
2023/10/21 04:29:41;;;;;;;;;;;;;;;;;;5062693;28;20017;-54
2023/10/21 04:32:07;;;;;;;;;;;;;;;;;;5063449;28;20347;-53
2023/10/21 04:34:33;;;;;;;;;;;;;;;;;;5059783;28;19917;-54
2023/10/21 04:36:59;;;;;;;;;;;;;;;;;;5061659;28;19923;-54
2023/10/21 04:39:25;;;;;;;;;;;;;;;;;;5064875;28;19990;-56
2023/10/21 04:41:51;;;;;;;;;;;;;;;;;;5064271;28;19912;-57
2023/10/21 04:44:17;;;;;;;;;;;;;;;;;;5067205;28;19962;-56
2023/10/21 04:46:43;;;;;;;;;;;;;;;;;;5064541;28;19944;-56
2023/10/21 04:49:09;;;;;;;;;;;;;;;;;;5067795;28;19945;-56
2023/10/21 04:51:35;;;;;;;;;;;;;;;;;;5068376;28;19912;-56
2023/10/21 04:54:01;;;;;;;;;;;;;;;;;;5068771;28;20417;-56
2023/10/21 04:56:27;;;;;;;;;;;;;;;;;;5067546;28;20252;-56
2023/10/21 04:58:53;;;;;;;;;;;;;;;;;;5068946;28;19966;-56
2023/10/21 05:01:19;;;;;;;;;;;;;;;;;;5065109;28;19959;-56
2023/10/21 05:03:45;;;;;;;;;;;;;;;;;;5067207;28;20027;-56
2023/10/21 05:06:11;;;;;;;;;;;;;;;;;;5061265;28;20340;-57
2023/10/21 05:08:37;;;;;;;;;;;;;;;;;;5066652;28;19919;-56
2023/10/21 05:11:04;;;;;;;;;;;;;;;;;;5068512;28;19934;-57
2023/10/21 05:13:30;;;;;;;;;;;;;;;;;;5065185;28;20260;-56
2023/10/21 05:15:56;;;;;;;;;;;;;;;;;;5064745;28;19974;-56
2023/10/21 05:18:22;;;;;;;;;;;;;;;;;;5065061;28;20276;-56
2023/10/21 05:20:48;;;;;;;;;;;;;;;;;;5067760;28;19912;-56
2023/10/21 05:23:14;;;;;;;;;;;;;;;;;;5064198;28;19912;-56
2023/10/21 05:25:40;;;;;;;;;;;;;;;;;;5062032;28;19985;-56
2023/10/21 05:28:06;;;;;;;;;;;;;;;;;;5063914;28;20364;-55
2023/10/21 05:30:32;;;;;;;;;;;;;;;;;;5063025;28;20297;-56
2023/10/21 05:32:58;;;;;;;;;;;;;;;;;;5059933;28;19913;-56
2023/10/21 05:35:25;;;;;;;;;;;;;;;;;;5067960;28;19912;-56
2023/10/21 05:37:51;;;;;;;;;;;;;;;;;;5057704;28;19935;-56
2023/10/21 05:40:17;;;;;;;;;;;;;;;;;;5057675;28;20063;-56
2023/10/21 05:42:43;;;;;;;;;;;;;;;;;;5056332;28;20009;-56
2023/10/21 05:45:09;;;;;;;;;;;;;;;;;;5064422;28;20414;-56
2023/10/21 05:47:36;;;;;;;;;;;;;;;;;;5064445;28;19980;-56
2023/10/21 05:50:02;;;;;;;;;;;;;;;;;;5068079;28;19916;-56
2023/10/21 05:52:28;;;;;;;;;;;;;;;;;;5062203;28;20011;-56
2023/10/21 05:54:54;;;;;;;;;;;;;;;;;;5064233;28;19915;-56
2023/10/21 05:57:20;;;;;;;;;;;;;;;;;;5063237;28;20317;-56
2023/10/21 05:59:46;;;;;;;;;;;;;;;;;;5076510;28;19958;-56
2023/10/21 06:02:13;;;;;;;;;;;;;;;;;;5066239;28;19991;-56
2023/10/21 06:04:39;;;;;;;;;;;;;;;;;;5065169;28;19947;-56
2023/10/21 06:07:05;;;;;;;;;;;;;;;;;;5065421;28;20016;-56
2023/10/21 06:09:31;;;;;;;;;;;;;;;;;;5080690;28;19913;-55
2023/10/21 06:11:57;;;;;;;;;;;;;;;;;;5065271;28;19912;-56
2023/10/21 06:14:23;;;;;;;;;;;;;;;;;;5066080;28;19912;-56
2023/10/21 06:16:49;;;;;;;;;;;;;;;;;;5065801;28;19915;-56
2023/10/21 06:19:18;;;;;;;;;;;;;;;;;;5063438;28;19919;-59
2023/10/21 06:21:44;;;;;;;;;;;;;;;;;;5066754;28;19908;-55
2023/10/21 06:24:10;;;;;;;;;;;;;;;;;;5064844;28;19913;-56
2023/10/21 06:26:36;;;;;;;;;;;;;;;;;;5065424;28;20261;-56
2023/10/21 06:29:04;;;;;;;;;;;;;;;;;;5064384;28;19912;-56
2023/10/21 06:31:31;;;;;;;;;;;;;;;;;;5065295;28;19916;-57
2023/10/21 06:33:57;;;;;;;;;;;;;;;;;;5067713;28;20485;-56
2023/10/21 06:36:23;;;;;;;;;;;;;;;;;;5065131;28;19915;-55
2023/10/21 06:38:49;;;;;;;;;;;;;;;;;;5065928;28;19908;-56
2023/10/21 06:41:16;;;;;;;;;;;;;;;;;;5064767;28;19915;-56
2023/10/21 06:43:42;;;;;;;;;;;;;;;;;;5066737;28;19920;-56
2023/10/21 06:46:08;;;;;;;;;;;;;;;;;;5066533;28;20228;-55
2023/10/21 06:48:34;;;;;;;;;;;;;;;;;;5072187;28;20074;-55
2023/10/21 06:51:00;;;;;;;;;;;;;;;;;;5071994;28;19919;-55
2023/10/21 06:53:29;;;;;;;;;;;;;;;;;;5071603;28;19908;-57
2023/10/21 06:55:56;;;;;;;;;;;;;;;;;;5066857;28;19954;-56
2023/10/21 06:58:22;;;;;;;;;;;;;;;;;;5074610;28;20425;-55
2023/10/21 07:00:48;;;;;;;;;;;;;;;;;;5072107;28;19920;-55
2023/10/21 07:03:14;;;;;;;;;;;;;;;;;;5069622;28;20019;-56
2023/10/21 07:05:41;;;;;;;;;;;;;;;;;;5069618;28;19916;-55
2023/10/21 07:08:07;;;;;;;;;;;;;;;;;;5079331;28;20481;-55
2023/10/21 07:10:33;;;;;;;;;;;;;;;;;;5074989;28;19981;-55
2023/10/21 07:12:59;;;;;;;;;;;;;;;;;;5073586;28;19909;-56
2023/10/21 07:15:27;;;;;;;;;;;;;;;;;;5075464;28;19970;-56
2023/10/21 07:17:53;;;;;;;;;;;;;;;;;;5078918;28;20342;-55
2023/10/21 07:20:19;;;;;;;;;;;;;;;;;;5071136;28;19920;-55
2023/10/21 07:22:46;;;;;;;;;;;;;;;;;;5070654;28;19916;-55
2023/10/21 07:25:12;;;;;;;;;;;;;;;;;;5072701;28;19974;-55
2023/10/21 07:27:38;;;;;;;;;;;;;;;;;;5077224;28;19920;-57
2023/10/21 07:30:04;;;;;;;;;;;;;;;;;;5073243;28;19916;-56
2023/10/21 07:32:30;;;;;;;;;;;;;;;;;;5077586;28;20387;-56
2023/10/21 07:34:56;;;;;;;;;;;;;;;;;;5067691;28;20264;-55
2023/10/21 07:37:22;;;;;;;;;;;;;;;;;;5074325;28;19935;-55
2023/10/21 07:39:48;;;;;;;;;;;;;;;;;;5071913;28;20279;-55
2023/10/21 07:42:14;;;;;;;;;;;;;;;;;;5074754;28;19908;-55
2023/10/21 07:44:41;;;;;;;;;;;;;;;;;;5071870;28;20305;-55
2023/10/21 07:47:07;;;;;;;;;;;;;;;;;;5075101;28;19908;-56
2023/10/21 07:49:33;;;;;;;;;;;;;;;;;;5071786;28;20007;-56
2023/10/21 07:51:59;;;;;;;;;;;;;;;;;;5071246;28;20374;-56
2023/10/21 07:54:25;;;;;;;;;;;;;;;;;;5071866;28;20347;-55
2023/10/21 07:56:52;;;;;;;;;;;;;;;;;;5067177;28;19922;-55
2023/10/21 07:59:19;;;;;;;;;;;;;;;;;;5068408;28;19908;-56
2023/10/21 08:01:45;;;;;;;;;;;;;;;;;;5064633;28;20319;-56
2023/10/21 08:04:11;;;;;;;;;;;;;;;;;;5074655;28;19920;-56
2023/10/21 08:06:38;;;;;;;;;;;;;;;;;;5066340;28;19923;-56
2023/10/21 08:09:04;;;;;;;;;;;;;;;;;;5067905;28;20363;-56
2023/10/21 08:11:31;;;;;;;;;;;;;;;;;;5067986;28;20375;-57
2023/10/21 08:13:57;;;;;;;;;;;;;;;;;;5062051;28;20303;-57
2023/10/21 08:16:23;;;;;;;;;;;;;;;;;;5065590;28;19919;-56
2023/10/21 08:18:50;;;;;;;;;;;;;;;;;;5064212;28;20332;-57
2023/10/21 08:21:16;;;;;;;;;;;;;;;;;;5063458;28;20317;-57
2023/10/21 08:23:42;;;;;;;;;;;;;;;;;;5066875;28;20001;-56
2023/10/21 08:26:08;;;;;;;;;;;;;;;;;;5067062;28;19916;-57
2023/10/21 08:28:34;;;;;;;;;;;;;;;;;;5061955;28;19958;-57
2023/10/21 08:31:00;;;;;;;;;;;;;;;;;;5065340;28;19952;-57
2023/10/21 08:33:26;;;;;;;;;;;;;;;;;;5063681;28;19908;-57
2023/10/21 08:35:53;;;;;;;;;;;;;;;;;;5064981;28;19908;-57
2023/10/21 08:38:19;;;;;;;;;;;;;;;;;;5065893;28;19913;-57
2023/10/21 08:40:47;;;;;;;;;;;;;;;;;;5062504;28;19908;-57
2023/10/21 08:43:13;;;;;;;;;;;;;;;;;;5065051;28;20008;-56
2023/10/21 08:45:39;;;;;;;;;;;;;;;;;;5063453;28;20296;-56
2023/10/21 08:48:05;;;;;;;;;;;;;;;;;;5064824;28;19916;-57
2023/10/21 08:50:31;;;;;;;;;;;;;;;;;;5061756;28;19993;-56
2023/10/21 08:52:57;;;;;;;;;;;;;;;;;;5067316;28;20256;-56
2023/10/21 08:55:23;;;;;;;;;;;;;;;;;;5063467;28;20038;-57
2023/10/21 08:57:49;;;;;;;;;;;;;;;;;;5068222;28;19912;-56
2023/10/21 09:00:16;;;;;;;;;;;;;;;;;;5066349;28;19966;-56
2023/10/21 09:02:42;;;;;;;;;;;;;;;;;;5064825;28;19912;-56
2023/10/21 09:05:08;;;;;;;;;;;;;;;;;;5062894;28;20004;-56
2023/10/21 09:07:34;;;;;;;;;;;;;;;;;;5064008;28;19939;-56
2023/10/21 09:10:01;;;;;;;;;;;;;;;;;;5063419;28;19912;-57
2023/10/21 09:12:29;;;;;;;;;;;;;;;;;;5065354;28;19912;-57
2023/10/21 09:15:01;;;;;;;;;;;;;;;;;;5065542;28;19965;-56
2023/10/21 09:17:27;;;;;;;;;;;;;;;;;;5066033;28;21284;-57
2023/10/21 09:19:54;;;;;;;;;;;;;;;;;;5066594;28;20008;-57
2023/10/21 09:22:20;;;;;;;;;;;;;;;;;;5066513;28;20355;-57
2023/10/21 09:24:47;;;;;;;;;;;;;;;;;;5066124;28;19924;-56
2023/10/21 09:27:13;;;;;;;;;;;;;;;;;;5064139;28;19931;-56
2023/10/21 09:29:39;;;;;;;;;;;;;;;;;;5065847;28;19912;-55
2023/10/21 09:32:06;;;;;;;;;;;;;;;;;;5061875;28;19951;-55
2023/10/21 09:34:32;;;;;;;;;;;;;;;;;;5063088;28;19936;-56
2023/10/21 09:36:59;;;;;;;;;;;;;;;;;;5065318;28;20352;-55
2023/10/21 09:39:25;;;;;;;;;;;;;;;;;;5062599;28;20261;-55
2023/10/21 09:41:51;;;;;;;;;;;;;;;;;;5065943;28;19920;-55
2023/10/21 09:44:17;;;;;;;;;;;;;;;;;;5062550;28;19944;-56
2023/10/21 09:46:44;;;;;;;;;;;;;;;;;;5062931;28;20016;-54
2023/10/21 09:49:10;;;;;;;;;;;;;;;;;;5065369;28;19912;-55
2023/10/21 09:51:39;;;;;;;;;;;;;;;;;;5064834;28;20351;-54
2023/10/21 09:54:05;;;;;;;;;;;;;;;;;;5064449;28;19919;-55
2023/10/21 09:56:32;;;;;;;;;;;;;;;;;;5064091;28;19912;-55
2023/10/21 09:58:58;;;;;;;;;;;;;;;;;;5062061;28;19912;-54
2023/10/21 10:01:24;;;;;;;;;;;;;;;;;;5060053;28;20228;-54
2023/10/21 10:03:50;;;;;;;;;;;;;;;;;;5064841;28;19920;-54
2023/10/21 10:06:16;;;;;;;;;;;;;;;;;;5062668;28;19936;-56
2023/10/21 10:08:42;;;;;;;;;;;;;;;;;;5060316;28;19916;-54
2023/10/21 10:11:08;;;;;;;;;;;;;;;;;;5063436;28;20477;-54
2023/10/21 10:13:34;;;;;;;;;;;;;;;;;;5061709;28;19920;-54
2023/10/21 10:16:04;;;;;;;;;;;;;;;;;;5061439;28;19912;-54
2023/10/21 10:18:31;;;;;;;;;;;;;;;;;;5065820;28;19908;-54
2023/10/21 10:20:58;;;;;;;;;;;;;;;;;;5064462;28;19959;-54
2023/10/21 10:23:24;;;;;;;;;;;;;;;;;;5059179;28;19912;-53
2023/10/21 10:25:51;;;;;;;;;;;;;;;;;;5065420;28;20260;-54
2023/10/21 10:28:17;;;;;;;;;;;;;;;;;;5062391;28;19998;-54
2023/10/21 10:30:44;;;;;;;;;;;;;;;;;;5063095;28;20341;-55
2023/10/21 10:33:13;;;;;;;;;;;;;;;;;;5063725;28;19912;-54
2023/10/21 10:35:40;;;;;;;;;;;;;;;;;;5063591;28;20221;-54
2023/10/21 10:38:06;;;;;;;;;;;;;;;;;;5062073;28;19915;-54
2023/10/21 10:40:33;;;;;;;;;;;;;;;;;;5062437;28;19908;-55
2023/10/21 10:42:59;;;;;;;;;;;;;;;;;;5062580;28;19916;-55
2023/10/21 10:45:26;;;;;;;;;;;;;;;;;;5061973;28;19938;-55
2023/10/21 10:47:52;;;;;;;;;;;;;;;;;;5063490;28;20260;-56
2023/10/21 10:50:23;;;;;;;;;;;;;;;;;;5065311;28;19970;-55
2023/10/21 10:52:50;;;;;;;;;;;;;;;;;;5059351;28;19909;-55
2023/10/21 10:55:16;;;;;;;;;;;;;;;;;;5066047;28;20185;-55
2023/10/21 10:57:43;;;;;;;;;;;;;;;;;;5062226;28;19923;-55
2023/10/21 11:00:10;;;;;;;;;;;;;;;;;;5065838;28;19916;-56
2023/10/21 11:02:36;;;;;;;;;;;;;;;;;;5058476;28;20374;-55
2023/10/21 11:05:03;;;;;;;;;;;;;;;;;;5058097;28;19912;-55
2023/10/21 11:07:30;;;;;;;;;;;;;;;;;;5057941;28;20371;-55
2023/10/21 11:09:57;;;;;;;;;;;;;;;;;;5062196;28;20004;-56
2023/10/21 11:12:23;;;;;;;;;;;;;;;;;;5054046;28;19913;-55
2023/10/21 11:14:49;;;;;;;;;;;;;;;;;;5057074;28;19915;-55
2023/10/21 11:17:17;;;;;;;;;;;;;;;;;;5054314;28;20215;-55
2023/10/21 11:19:43;;;;;;;;;;;;;;;;;;5062037;28;20059;-55
2023/10/21 11:22:09;;;;;;;;;;;;;;;;;;5062673;28;20321;-55
2023/10/21 11:24:35;;;;;;;;;;;;;;;;;;5061992;28;19935;-55
2023/10/21 11:27:01;;;;;;;;;;;;;;;;;;5061749;28;19923;-55
2023/10/21 11:29:27;;;;;;;;;;;;;;;;;;5049266;28;19916;-55
2023/10/21 11:31:53;;;;;;;;;;;;;;;;;;5051642;28;19928;-54
2023/10/21 11:34:19;;;;;;;;;;;;;;;;;;5066486;28;19959;-54
2023/10/21 11:36:46;;;;;;;;;;;;;;;;;;5073399;28;19965;-54
2023/10/21 11:39:15;;;;;;;;;;;;;;;;;;5066745;28;20398;-55
2023/10/21 11:41:44;;;;;;;;;;;;;;;;;;5066211;28;19912;-55
2023/10/21 11:44:11;;;;;;;;;;;;;;;;;;5067096;28;19981;-54
2023/10/21 11:46:37;;;;;;;;;;;;;;;;;;5065788;28;19935;-55
2023/10/21 11:49:13;;;;;;;;;;;;;;;;;;5068806;28;19913;-56
2023/10/21 11:51:39;;;;;;;;;;;;;;;;;;5067252;28;19908;-56
2023/10/21 11:54:08;;;;;;;;;;;;;;;;;;5066896;28;19955;-56
2023/10/21 11:56:57;;;;;;;;;;;;;;;;;;5061335;28;19954;-56
2023/10/21 12:18:40;;;;;;;;;;;;;;;;;;5063257;28;19974;-56
2023/10/21 12:34:36;;;;;;;;;;;;;;;;;;5065726;28;20003;-56
2023/10/21 12:37:29;;;;;;;;;;;;;;;;;;5063073;28;19908;-55
2023/10/21 12:40:30;;;;;;;;;;;;;;;;;;5058673;28;20269;-56
2023/10/21 12:42:49;;;;;;;;;;;;;;;;;;5050374;28;20416;-55
2023/10/21 12:45:22;;;;;;;;;;;;;;;;;;5059114;28;19938;-55
2023/10/21 12:47:48;;;;;;;;;;;;;;;;;;5059845;28;20549;-55
2023/10/21 12:50:15;;;;;;;;;;;;;;;;;;5060497;28;20319;-55
2023/10/21 12:52:42;;;;;;;;;;;;;;;;;;5062241;28;19964;-56
2023/10/21 12:55:13;;;;;;;;;;;;;;;;;;5063924;28;19915;-56
2023/10/21 12:57:40;;;;;;;;;;;;;;;;;;5063684;28;19919;-55
2023/10/21 13:00:07;;;;;;;;;;;;;;;;;;5062334;28;20375;-55
2023/10/21 13:02:35;;;;;;;;;;;;;;;;;;5061833;28;20296;-56
2023/10/21 13:05:03;;;;;;;;;;;;;;;;;;5063418;28;19916;-55
2023/10/21 13:07:31;;;;;;;;;;;;;;;;;;5064322;28;19962;-55
2023/10/21 13:09:57;;;;;;;;;;;;;;;;;;5066209;28;19937;-56
2023/10/21 13:12:23;;;;;;;;;;;;;;;;;;5067448;28;19912;-55
2023/10/21 13:14:50;;;;;;;;;;;;;;;;;;5060450;28;19917;-55
2023/10/21 13:17:16;;;;;;;;;;;;;;;;;;5063677;28;19915;-56
2023/10/21 13:19:43;;;;;;;;;;;;;;;;;;5068790;28;20356;-55
2023/10/21 13:22:09;;;;;;;;;;;;;;;;;;5064932;28;19916;-55
2023/10/21 13:24:35;;;;;;;;;;;;;;;;;;5060657;28;19993;-55
2023/10/21 13:27:01;;;;;;;;;;;;;;;;;;5059416;28;20022;-55
2023/10/21 13:29:26;;;;;;;;;;;;;;;;;;5064913;28;20997;-54
2023/10/21 13:31:53;;;;;;;;;;;;;;;;;;5061916;28;20312;-55
2023/10/21 13:34:18;;;;;;;;;;;;;;;;;;5062132;28;19927;-55
2023/10/21 13:36:44;;;;;;;;;;;;;;;;;;5064061;28;20383;-54
2023/10/21 13:39:18;;;;;;;;;;;;;;;;;;5065210;28;19939;-54
2023/10/21 13:41:44;;;;;;;;;;;;;;;;;;5061599;28;19924;-54
2023/10/21 13:44:10;;;;;;;;;;;;;;;;;;5060958;28;19952;-54
2023/10/21 13:46:36;;;;;;;;;;;;;;;;;;5060351;28;19915;-54
2023/10/21 13:49:02;;;;;;;;;;;;;;;;;;5060925;28;19922;-55
2023/10/21 13:51:28;;;;;;;;;;;;;;;;;;5060366;28;20006;-53
2023/10/21 13:53:54;;;;;;;;;;;;;;;;;;5060894;28;19999;-59
2023/10/21 13:56:20;;;;;;;;;;;;;;;;;;5062061;28;20651;-54
2023/10/21 13:58:46;;;;;;;;;;;;;;;;;;5061398;28;19908;-54
2023/10/21 14:01:13;;;;;;;;;;;;;;;;;;5062997;28;20379;-54
2023/10/21 14:03:39;;;;;;;;;;;;;;;;;;5062086;28;20325;-54
2023/10/21 14:06:05;;;;;;;;;;;;;;;;;;5060690;28;19952;-54
2023/10/21 14:08:31;;;;;;;;;;;;;;;;;;5064946;28;19977;-54
2023/10/21 14:10:58;;;;;;;;;;;;;;;;;;5065760;28;19912;-55
2023/10/21 14:13:32;;;;;;;;;;;;;;;;;;5059399;28;19912;-55
2023/10/21 14:15:59;;;;;;;;;;;;;;;;;;5054821;28;19912;-54
2023/10/21 14:18:25;;;;;;;;;;;;;;;;;;5063638;28;19908;-54
2023/10/21 14:20:51;;;;;;;;;;;;;;;;;;5066869;28;20352;-54
2023/10/21 14:23:20;;;;;;;;;;;;;;;;;;5063857;28;20279;-54
2023/10/21 14:25:46;;;;;;;;;;;;;;;;;;5054619;28;19920;-54
2023/10/21 14:28:15;;;;;;;;;;;;;;;;;;5045788;28;19967;-54
2023/10/21 14:30:42;;;;;;;;;;;;;;;;;;5047099;28;19943;-54
2023/10/21 14:33:08;;;;;;;;;;;;;;;;;;5058796;28;20315;-54
2023/10/21 14:35:35;;;;;;;;;;;;;;;;;;5063576;28;19920;-54
2023/10/21 14:38:02;;;;;;;;;;;;;;;;;;5063763;28;20379;-54
2023/10/21 14:40:27;;;;;;;;;;;;;;;;;;5063472;28;20272;-54
2023/10/21 14:42:54;;;;;;;;;;;;;;;;;;5060982;28;20335;-54
2023/10/21 14:45:20;;;;;;;;;;;;;;;;;;5063542;28;19912;-53
2023/10/21 14:47:46;;;;;;;;;;;;;;;;;;5062096;28;19908;-54
2023/10/21 14:50:12;;;;;;;;;;;;;;;;;;5062468;28;20208;-53
2023/10/21 14:52:38;;;;;;;;;;;;;;;;;;5057070;28;19959;-53
2023/10/21 14:55:05;;;;;;;;;;;;;;;;;;5060623;28;21703;-53
2023/10/21 14:57:31;;;;;;;;;;;;;;;;;;5063178;28;20345;-53
2023/10/21 14:59:58;;;;;;;;;;;;;;;;;;5060816;28;20233;-53
2023/10/21 15:02:24;;;;;;;;;;;;;;;;;;5076810;28;20002;-54
2023/10/21 15:04:50;;;;;;;;;;;;;;;;;;5059839;28;19916;-54
2023/10/21 15:07:16;;;;;;;;;;;;;;;;;;5063276;28;19912;-53
2023/10/21 15:09:42;;;;;;;;;;;;;;;;;;5076953;28;19927;-54
2023/10/21 15:12:09;;;;;;;;;;;;;;;;;;5063963;28;20319;-53
2023/10/21 15:14:35;;;;;;;;;;;;;;;;;;5063574;28;20030;-53
2023/10/21 15:17:03;;;;;;;;;;;;;;;;;;5061671;28;20007;-54
2023/10/21 15:19:29;;;;;;;;;;;;;;;;;;5065203;28;19956;-53
2023/10/21 15:21:55;;;;;;;;;;;;;;;;;;5067435;28;19908;-54
2023/10/21 15:24:21;;;;;;;;;;;;;;;;;;5056093;28;19959;-53
2023/10/21 15:26:47;;;;;;;;;;;;;;;;;;5060441;28;20038;-53
2023/10/21 15:29:13;;;;;;;;;;;;;;;;;;5059977;28;20005;-54
2023/10/21 15:31:41;;;;;;;;;;;;;;;;;;5058932;28;19924;-53
2023/10/21 15:34:07;;;;;;;;;;;;;;;;;;5062428;28;19928;-53
2023/10/21 15:36:33;;;;;;;;;;;;;;;;;;5059805;28;19955;-54
2023/10/21 15:39:01;;;;;;;;;;;;;;;;;;5061437;28;19959;-54
2023/10/21 15:41:27;;;;;;;;;;;;;;;;;;5062451;28;19912;-54
2023/10/21 15:43:55;;;;;;;;;;;;;;;;;;5064455;28;19916;-54
2023/10/21 15:46:21;;;;;;;;;;;;;;;;;;5062883;28;19920;-53
2023/10/21 15:48:47;;;;;;;;;;;;;;;;;;5062508;28;19938;-53
2023/10/21 15:51:14;;;;;;;;;;;;;;;;;;5061123;28;19923;-53
2023/10/21 15:53:40;;;;;;;;;;;;;;;;;;5063894;28;19968;-53
2023/10/21 15:56:06;;;;;;;;;;;;;;;;;;5064114;28;20359;-53
2023/10/21 15:58:32;;;;;;;;;;;;;;;;;;5057991;28;20288;-54
2023/10/21 16:00:59;;;;;;;;;;;;;;;;;;5062448;28;19909;-52
2023/10/21 16:03:25;;;;;;;;;;;;;;;;;;5059046;28;20283;-54
2023/10/21 16:05:51;;;;;;;;;;;;;;;;;;5056638;28;19917;-53
2023/10/21 16:08:21;;;;;;;;;;;;;;;;;;5057496;28;19951;-53
2023/10/21 16:10:47;;;;;;;;;;;;;;;;;;5061468;28;19952;-53
2023/10/21 16:13:13;;;;;;;;;;;;;;;;;;5061035;28;19915;-53
2023/10/21 16:15:41;;;;;;;;;;;;;;;;;;5064975;28;20018;-53
2023/10/21 16:18:07;;;;;;;;;;;;;;;;;;5062159;28;19935;-55
2023/10/21 16:20:35;;;;;;;;;;;;;;;;;;5067122;28;19983;-53
2023/10/21 16:23:01;;;;;;;;;;;;;;;;;;5060466;28;20620;-53
2023/10/21 16:25:27;;;;;;;;;;;;;;;;;;5066992;28;20006;-53
2023/10/21 16:27:53;;;;;;;;;;;;;;;;;;5065478;28;20012;-53
2023/10/21 16:30:19;;;;;;;;;;;;;;;;;;5068846;28;20034;-52
2023/10/21 16:32:45;;;;;;;;;;;;;;;;;;5065335;28;19912;-52
2023/10/21 16:35:11;;;;;;;;;;;;;;;;;;5062943;28;19994;-53
2023/10/21 16:37:37;;;;;;;;;;;;;;;;;;5063810;28;19912;-51
2023/10/21 16:40:07;;;;;;;;;;;;;;;;;;5064677;28;20253;-52
2023/10/21 16:42:33;;;;;;;;;;;;;;;;;;5063582;28;19924;-51
2023/10/21 16:44:59;;;;;;;;;;;;;;;;;;5062566;28;20397;-51
2023/10/21 16:47:25;;;;;;;;;;;;;;;;;;5067238;28;20288;-51
2023/10/21 16:49:51;;;;;;;;;;;;;;;;;;5060772;28;20383;-52
2023/10/21 16:52:18;;;;;;;;;;;;;;;;;;5064024;28;19955;-51
2023/10/21 16:54:45;;;;;;;;;;;;;;;;;;5064543;28;20772;-51
2023/10/21 16:57:12;;;;;;;;;;;;;;;;;;5064628;28;19919;-51
2023/10/21 16:59:37;;;;;;;;;;;;;;;;;;5066231;28;19916;-51
2023/10/21 17:02:04;;;;;;;;;;;;;;;;;;5058010;28;19912;-51
2023/10/21 17:04:30;;;;;;;;;;;;;;;;;;5059150;28;19959;-52
2023/10/21 17:06:56;;;;;;;;;;;;;;;;;;5064651;28;19912;-53
2023/10/21 17:09:22;;;;;;;;;;;;;;;;;;5062650;28;19919;-51
2023/10/21 17:11:48;;;;;;;;;;;;;;;;;;5063463;28;19956;-52
2023/10/21 17:14:14;;;;;;;;;;;;;;;;;;5062104;28;19927;-52